Terminal Aerodrome Forecast
Issued by NWS Knoxville/Tri Cities, TN

Home | Current Version | Previous Version | Text Only | Print | Product List | Glossary On
Versions: 1 2 3 4 5 6 7 8 9 10 11 12 13 14 15 16 17 18 19 20 21 22 23 24 25 26 27 28 29 30 31 32 33 34 35 36 37
000
FTUS44 KMRX 011720
TAFCHA
TAF
KCHA 011720Z 0118/0218 18010G20KT P6SM VCSH OVC035
      TEMPO 0118/0121 5SM -SHRA BKN025
     FM012100 19012G22KT 3SM -SHRA VCTS BKN025CB
      TEMPO 0121/0123 25025G40KT 1SM +TSRA OVC015CB
     FM020000 32015G25KT P6SM BKN050
     FM020600 36010KT P6SM SKC=

USA.gov is the U.S. government's official web portal to all federal, state and local government web resources and services.